Time;durP1;ratioP1;P1;durP2;ratioP2;P2;SDS_P1;SDS_P2;PMS_P1;PMS_P2;Temp;Humidity;BMP_temperature;BMP_pressure;BME280_temperature;BME280_humidity;BME280_pressure;Samples;Min_cycle;Max_cycle;Signal;HPM_P1;HPM_P2
2021/08/10 00:04:17;;;;;;;4.10;1.83;;;17.20;1.00;;;;;;5015403;28;20770;-79
2021/08/10 00:07:28;;;;;;;7.13;2.57;;;17.20;1.00;;;;;;5027810;28;20412;-79
2021/08/10 00:10:47;;;;;;;5.07;1.93;;;17.20;1.00;;;;;;5034967;28;20175;-79
2021/08/10 00:13:22;;;;;;;3.67;1.90;;;17.20;1.00;;;;;;5035123;28;20391;-79
2021/08/10 00:15:53;;;;;;;14.03;2.40;;;17.20;1.00;;;;;;5035367;28;20387;-80
2021/08/10 00:21:41;;;;;;;7.93;2.53;;;17.20;1.00;;;;;;5014593;28;20518;-79
2021/08/10 00:24:07;;;;;;;4.30;2.03;;;17.20;1.00;;;;;;5014472;28;20878;-80
2021/08/10 00:26:32;;;;;;;7.60;1.73;;;17.20;1.00;;;;;;5022923;28;20178;-80
2021/08/10 00:29:02;;;;;;;3.40;2.20;;;17.20;1.00;;;;;;5033629;28;20535;-81
2021/08/10 00:34:59;;;;;;;2.70;2.07;;;17.30;1.00;;;;;;5033043;28;20405;-80
2021/08/10 00:37:58;;;;;;;6.13;3.40;;;17.20;1.00;;;;;;5014833;28;20409;-79
2021/08/10 00:40:59;;;;;;;3.70;2.10;;;17.20;1.00;;;;;;5029455;28;20491;-79
2021/08/10 00:43:58;;;;;;;2.30;2.10;;;17.20;1.00;;;;;;5034223;28;20483;-79
2021/08/10 00:46:41;;;;;;;11.63;2.40;;;17.20;1.00;;;;;;5035097;28;20391;-79
2021/08/10 00:52:29;;;;;;;4.50;1.87;;;17.20;1.00;;;;;;5033993;28;20374;-79
2021/08/10 00:55:28;;;;;;;5.90;2.23;;;17.10;1.00;;;;;;5034183;28;20367;-79
2021/08/10 00:58:30;;;;;;;4.43;2.20;;;17.10;1.00;;;;;;5033991;28;20591;-79
2021/08/10 01:00:57;;;;;;;2.50;2.30;;;17.00;1.00;;;;;;5034738;28;20486;-79
2021/08/10 01:03:29;;;;;;;6.53;2.23;;;17.00;1.00;;;;;;5033037;28;20422;-79
2021/08/10 01:06:05;;;;;;;2.37;2.10;;;17.00;1.00;;;;;;5033706;28;20395;-79
2021/08/10 01:09:10;;;;;;;5.83;2.60;;;17.00;1.00;;;;;;5033155;28;20396;-79
2021/08/10 01:12:28;;;;;;;3.10;1.83;;;16.90;1.00;;;;;;5034029;28;20379;-79
2021/08/10 01:18:46;;;;;;;12.73;2.80;;;16.90;1.00;;;;;;4972620;28;20764;-79
2021/08/10 01:21:33;;;;;;;3.73;2.43;;;16.80;1.00;;;;;;4953525;29;20451;-79
2021/08/10 01:24:31;;;;;;;4.83;2.43;;;16.80;1.00;;;;;;4953744;29;20423;-80
2021/08/10 01:27:28;;;;;;;5.63;2.13;;;16.80;1.00;;;;;;4969187;28;20398;-80
2021/08/10 01:30:15;;;;;;;5.20;2.83;;;16.80;1.00;;;;;;4956584;28;20480;-80
2021/08/10 01:33:28;;;;;;;6.30;2.20;;;16.80;1.00;;;;;;4973223;28;20506;-79
2021/08/10 01:36:00;;;;;;;2.47;2.10;;;16.90;1.00;;;;;;4972766;28;20440;-79
2021/08/10 01:39:00;;;;;;;3.87;2.00;;;16.90;1.00;;;;;;4972757;28;20463;-79
2021/08/10 01:41:59;;;;;;;7.90;2.27;;;16.90;1.00;;;;;;4973015;28;20402;-79
2021/08/10 01:45:01;;;;;;;5.03;2.50;;;16.80;1.00;;;;;;4972711;28;20426;-79
2021/08/10 01:47:31;;;;;;;3.90;2.60;;;16.80;1.00;;;;;;4972874;28;20388;-79
2021/08/10 01:50:00;;;;;;;4.10;2.37;;;16.80;1.00;;;;;;4971372;28;20575;-79
2021/08/10 01:52:59;;;;;;;4.10;2.80;;;16.80;1.00;;;;;;5013780;28;20406;-79
2021/08/10 01:55:59;;;;;;;8.33;2.50;;;16.80;1.00;;;;;;5013820;28;20856;-79
2021/08/10 01:58:48;;;;;;;3.83;2.40;;;16.70;1.00;;;;;;5028725;28;20410;-79
2021/08/10 02:01:15;;;;;;;6.70;2.50;;;16.80;1.00;;;;;;5032288;28;20383;-79
2021/08/10 02:03:59;;;;;;;4.90;2.60;;;16.70;1.00;;;;;;5033426;28;20396;-80
2021/08/10 02:06:29;;;;;;;5.67;2.40;;;16.70;1.00;;;;;;5033483;28;20447;-80
2021/08/10 02:09:29;;;;;;;6.93;2.40;;;16.60;1.00;;;;;;5033357;28;20418;-80
2021/08/10 02:12:28;;;;;;;3.90;2.63;;;16.60;1.00;;;;;;5033258;28;20369;-80
2021/08/10 02:14:56;;;;;;;3.43;2.50;;;16.50;1.00;;;;;;5034881;28;20526;-80
2021/08/10 02:17:29;;;;;;;5.53;2.47;;;16.50;1.00;;;;;;5037460;28;20395;-80
2021/08/10 02:20:29;;;;;;;5.47;2.70;;;16.50;1.00;;;;;;5019212;28;20419;-79
2021/08/10 02:22:59;;;;;;;3.80;2.33;;;16.50;1.00;;;;;;5017384;28;21110;-79
2021/08/10 02:25:58;;;;;;;2.70;1.97;;;16.50;1.00;;;;;;5017266;28;20407;-79
2021/08/10 02:28:59;;;;;;;3.27;2.30;;;16.50;1.00;;;;;;5016982;28;20430;-79
2021/08/10 02:31:44;;;;;;;4.40;2.77;;;16.50;1.00;;;;;;5017368;28;20401;-80
2021/08/10 02:34:58;;;;;;;5.63;2.77;;;16.50;1.00;;;;;;5015701;28;20399;-80
2021/08/10 02:37:32;;;;;;;5.83;2.20;;;16.50;1.00;;;;;;5027810;28;20410;-80
2021/08/10 02:40:02;;;;;;;5.37;2.57;;;16.40;1.00;;;;;;5036821;28;20371;-80
2021/08/10 02:42:29;;;;;;;11.80;2.67;;;16.40;1.00;;;;;;5036626;28;20492;-80
2021/08/10 02:44:58;;;;;;;4.20;2.37;;;16.50;1.00;;;;;;5036329;28;20440;-80
2021/08/10 02:47:25;;;;;;;5.23;2.57;;;16.50;1.00;;;;;;5036823;28;20748;-79
2021/08/10 02:49:50;;;;;;;8.53;2.60;;;16.50;1.00;;;;;;5020608;28;20408;-79
2021/08/10 02:52:17;;;;;;;2.40;2.00;;;16.50;1.00;;;;;;5016848;28;20412;-79
2021/08/10 02:54:48;;;;;;;2.90;2.10;;;16.40;1.00;;;;;;5016696;28;20658;-79
2021/08/10 02:57:36;;;;;;;5.00;2.27;;;16.50;1.00;;;;;;5016872;28;20506;-79
2021/08/10 03:00:07;;;;;;;6.10;2.40;;;16.50;1.00;;;;;;5036386;28;20455;-79
2021/08/10 03:03:01;;;;;;;5.30;2.23;;;16.50;1.00;;;;;;5018203;28;20957;-80
2021/08/10 03:05:31;;;;;;;2.70;2.27;;;16.50;1.00;;;;;;5017598;28;20374;-79
2021/08/10 03:08:02;;;;;;;8.07;2.80;;;16.50;1.00;;;;;;5036502;28;20393;-79
2021/08/10 03:10:34;;;;;;;4.30;2.80;;;16.50;1.00;;;;;;5036285;28;20736;-80
2021/08/10 03:13:33;;;;;;;5.53;2.60;;;16.40;1.00;;;;;;5036165;28;20371;-80
2021/08/10 03:16:31;;;;;;;4.83;2.20;;;16.40;1.00;;;;;;5036177;28;20385;-80
2021/08/10 03:19:30;;;;;;;14.03;2.30;;;16.40;1.00;;;;;;5036360;28;20387;-80
2021/08/10 03:21:59;;;;;;;4.10;2.30;;;16.30;1.00;;;;;;5036498;28;20439;-80
2021/08/10 03:24:30;;;;;;;2.33;1.93;;;16.30;1.00;;;;;;5035902;28;20396;-80
2021/08/10 03:27:01;;;;;;;5.80;2.47;;;16.30;1.00;;;;;;5034801;28;20374;-80
2021/08/10 03:29:54;;;;;;;6.37;2.50;;;16.20;1.00;;;;;;5035424;28;20415;-80
2021/08/10 03:32:30;;;;;;;4.30;2.53;;;16.20;1.00;;;;;;5032649;28;20894;-79
2021/08/10 03:38:24;;;;;;;5.00;2.97;;;16.10;1.00;;;;;;5023182;28;20390;-79
2021/08/10 03:40:59;;;;;;;2.70;2.47;;;16.10;1.00;;;;;;5015858;28;20401;-80
2021/08/10 03:43:29;;;;;;;6.80;2.70;;;16.10;1.00;;;;;;5034855;28;20433;-79
2021/08/10 03:45:59;;;;;;;7.20;2.50;;;16.10;1.00;;;;;;5035899;28;20392;-79
2021/08/10 03:48:41;;;;;;;4.13;2.53;;;16.10;1.00;;;;;;5034489;28;20412;-79
2021/08/10 03:51:29;;;;;;;6.97;2.37;;;16.00;1.00;;;;;;5035550;28;20395;-79
2021/08/10 03:53:59;;;;;;;8.20;2.70;;;16.00;1.00;;;;;;5035456;28;20388;-79
2021/08/10 03:56:30;;;;;;;3.40;2.60;;;16.00;1.00;;;;;;5035306;28;20418;-79
2021/08/10 03:59:07;;;;;;;4.33;2.70;;;16.00;1.00;;;;;;5035173;28;20426;-79
2021/08/10 04:02:16;;;;;;;6.83;2.33;;;16.00;1.00;;;;;;5017404;28;20490;-79
2021/08/10 04:04:59;;;;;;;9.13;2.80;;;16.00;1.00;;;;;;5034748;28;20410;-80
2021/08/10 04:07:31;;;;;;;4.17;2.93;;;16.00;1.00;;;;;;5035664;28;20379;-80
2021/08/10 04:10:01;;;;;;;4.50;2.70;;;16.00;1.00;;;;;;5035028;28;20444;-80
2021/08/10 04:12:29;;;;;;;2.30;2.10;;;16.00;1.00;;;;;;5015211;28;20438;-80
2021/08/10 04:14:59;;;;;;;3.97;2.07;;;16.00;1.00;;;;;;5014001;28;20765;-80
2021/08/10 04:17:59;;;;;;;6.13;2.87;;;16.00;1.00;;;;;;5021079;28;20418;-80
2021/08/10 04:20:58;;;;;;;8.67;2.67;;;16.00;1.00;;;;;;5033689;28;21005;-80
2021/08/10 04:23:29;;;;;;;9.53;2.93;;;16.00;1.00;;;;;;5033418;28;20447;-80
2021/08/10 04:25:59;;;;;;;4.83;2.80;;;16.10;1.00;;;;;;5034955;28;20865;-80
2021/08/10 04:28:29;;;;;;;5.57;2.37;;;16.10;1.00;;;;;;5034562;28;20366;-80
2021/08/10 04:30:59;;;;;;;7.10;2.63;;;16.10;1.00;;;;;;5034598;28;20390;-80
2021/08/10 04:33:58;;;;;;;9.47;3.00;;;16.10;1.00;;;;;;5034727;28;20486;-79
2021/08/10 04:36:29;;;;;;;3.73;3.00;;;16.10;1.00;;;;;;5034551;28;20400;-79
2021/08/10 04:39:00;;;;;;;7.27;2.83;;;16.20;1.00;;;;;;5025547;28;20950;-79
2021/08/10 04:41:35;;;;;;;9.63;3.27;;;16.20;1.00;;;;;;5034398;28;20862;-79
2021/08/10 04:44:28;;;;;;;5.07;2.57;;;16.30;1.00;;;;;;5034525;28;20754;-79
2021/08/10 04:47:29;;;;;;;8.67;2.47;;;16.30;1.00;;;;;;5034416;28;20424;-79
2021/08/10 04:49:59;;;;;;;6.67;2.30;;;16.30;1.00;;;;;;5024153;28;20395;-80
2021/08/10 04:52:29;;;;;;;3.17;2.20;;;16.30;1.00;;;;;;5014590;28;20458;-80
2021/08/10 04:54:59;;;;;;;8.80;2.70;;;16.40;1.00;;;;;;5013573;28;20460;-80
2021/08/10 04:57:59;;;;;;;3.80;2.30;;;16.40;1.00;;;;;;5020474;28;20435;-80
2021/08/10 05:00:24;;;;;;;6.93;2.67;;;16.50;1.00;;;;;;5034489;28;20413;-72
2021/08/10 05:02:59;;;;;;;3.30;2.30;;;16.50;1.00;;;;;;5034553;28;20462;-87
2021/08/10 05:05:29;;;;;;;2.93;2.50;;;16.50;1.00;;;;;;5034845;28;20242;-87
2021/08/10 05:07:59;;;;;;;2.63;2.43;;;16.50;1.00;;;;;;5033639;28;20408;-86
2021/08/10 05:10:29;;;;;;;9.17;2.70;;;16.60;1.00;;;;;;5033576;28;20896;-86
2021/08/10 05:16:16;;;;;;;3.73;2.63;;;16.60;1.00;;;;;;5034643;28;20368;-87
2021/08/10 05:19:34;;;;;;;4.07;2.20;;;16.70;1.00;;;;;;5034791;28;20930;-88
2021/08/10 05:25:22;;;;;;;6.73;2.60;;;16.80;1.00;;;;;;5015135;28;20379;-88
2021/08/10 05:31:10;;;;;;;2.63;2.43;;;16.80;1.00;;;;;;5014749;28;20425;-89
2021/08/10 05:36:58;;;;;;;4.90;2.80;;;16.90;1.00;;;;;;5013951;28;20204;-81
2021/08/10 05:42:46;;;;;;;2.80;2.07;;;17.00;1.00;;;;;;5030906;28;20335;-77
2021/08/10 05:45:29;;;;;;;4.63;2.20;;;17.00;1.00;;;;;;5033479;28;20367;-79
2021/08/10 05:48:14;;;;;;;7.43;2.77;;;17.10;1.00;;;;;;5032205;28;20766;-78
2021/08/10 05:50:39;;;;;;;8.20;2.90;;;17.10;1.00;;;;;;5038171;28;21009;-80
2021/08/10 05:53:17;;;;;;;12.33;2.60;;;17.20;1.00;;;;;;5038685;28;20420;-79
2021/08/10 05:56:00;;;;;;;7.03;2.50;;;17.30;1.00;;;;;;5030608;28;20192;-80
2021/08/10 05:58:26;;;;;;;13.90;2.70;;;17.40;1.00;;;;;;5039247;28;20461;-79
2021/08/10 06:00:53;;;;;;;3.30;2.40;;;17.40;1.00;;;;;;5039670;28;20423;-80
2021/08/10 06:03:25;;;;;;;5.83;2.37;;;17.50;1.00;;;;;;5038168;28;20499;-80
2021/08/10 06:05:53;;;;;;;2.30;1.80;;;17.40;1.00;;;;;;5034694;28;20477;-80
2021/08/10 06:18:35;;;;;;;4.63;2.37;;;17.80;1.00;;;;;;5038814;28;20436;-80
2021/08/10 06:21:11;;;;;;;2.73;1.90;;;17.80;1.00;;;;;;5027674;28;20417;-80
2021/08/10 06:27:17;;;;;;;9.00;2.60;;;18.00;1.00;;;;;;5024592;28;20406;-79
2021/08/10 06:30:16;;;;;;;7.77;2.70;;;18.00;1.00;;;;;;5039018;28;20912;-79
2021/08/10 06:36:29;;;;;;;6.37;1.50;;;18.10;1.00;;;;;;5039193;28;20831;-79
2021/08/10 06:38:55;;;;;;;2.73;1.93;;;18.10;1.00;;;;;;5038837;28;20483;-79
2021/08/10 06:41:35;;;;;;;9.83;2.30;;;18.20;1.00;;;;;;5020469;28;20372;-79
2021/08/10 06:47:22;;;;;;;4.17;2.00;;;18.60;1.00;;;;;;5039142;28;20376;-79
2021/08/10 06:53:18;;;;;;;5.63;2.00;;;18.90;1.00;;;;;;5032801;28;20304;-79
2021/08/10 06:55:53;;;;;;;3.50;1.80;;;19.10;1.00;;;;;;5038158;28;20438;-81
2021/08/10 06:58:47;;;;;;;3.03;1.73;;;19.10;1.00;;;;;;5035240;28;20388;-81
2021/08/10 07:04:35;;;;;;;7.87;2.47;;;19.60;1.00;;;;;;5016623;28;20467;-78
2021/08/10 07:07:04;;;;;;;6.37;2.40;;;19.60;1.00;;;;;;5021467;28;20765;-78
2021/08/10 07:09:47;;;;;;;3.43;2.00;;;19.80;1.00;;;;;;5035409;28;20441;-82
2021/08/10 07:15:36;;;;;;;5.13;2.30;;;19.90;1.00;;;;;;5035057;28;20418;-79
2021/08/10 07:21:24;;;;;;;4.40;1.73;;;20.10;1.00;;;;;;5035747;28;20461;-79
2021/08/10 07:27:12;;;;;;;4.93;2.60;;;20.10;1.00;;;;;;5015999;28;20388;-79
2021/08/10 07:30:29;;;;;;;2.70;2.50;;;20.00;1.00;;;;;;5030534;28;20879;-79
2021/08/10 07:36:17;;;;;;;9.40;3.37;;;19.90;1.00;;;;;;5035283;28;20433;-79
2021/08/10 07:39:10;;;;;;;4.20;2.30;;;19.70;1.00;;;;;;5034641;28;20447;-79
2021/08/10 07:45:06;;;;;;;7.77;3.00;;;19.70;1.00;;;;;;5034413;28;20770;-79
2021/08/10 07:47:54;;;;;;;13.20;2.90;;;19.70;1.00;;;;;;5035148;28;20488;-79
2021/08/10 08:03:51;;;;;;;5.23;2.40;;;20.50;1.00;;;;;;5034742;28;20487;-80
2021/08/10 08:06:58;;;;;;;6.70;2.80;;;20.70;1.00;;;;;;5033605;28;20484;-80
2021/08/10 08:09:35;;;;;;;5.00;2.43;;;20.90;1.00;;;;;;5033022;28;20456;-80
2021/08/10 08:15:35;;;;;;;8.53;2.13;;;21.20;1.00;;;;;;5015264;28;20959;-80
2021/08/10 08:18:46;;;;;;;6.97;2.67;;;21.50;1.00;;;;;;5016854;28;20387;-79
2021/08/10 08:21:41;;;;;;;5.10;2.00;;;21.90;1.00;;;;;;5023668;28;20471;-79
2021/08/10 08:24:06;;;;;;;6.00;1.80;;;22.00;1.00;;;;;;5029037;28;20751;-79
2021/08/10 08:26:32;;;;;;;4.00;2.10;;;22.10;1.00;;;;;;5030900;28;20501;-79
2021/08/10 08:28:59;;;;;;;4.20;1.67;;;22.20;1.00;;;;;;5020977;28;20170;-79
2021/08/10 08:31:25;;;;;;;6.10;2.23;;;22.20;1.00;;;;;;5031384;28;20429;-79
2021/08/10 08:33:50;;;;;;;3.93;1.67;;;22.20;1.00;;;;;;5032606;28;20411;-80
2021/08/10 08:36:16;;;;;;;4.23;1.73;;;22.20;1.00;;;;;;5022870;28;20540;-80
2021/08/10 08:38:42;;;;;;;3.23;1.73;;;;;;;;;;5033097;28;20172;-80
2021/08/10 08:41:10;;;;;;;7.70;2.17;;;22.40;1.00;;;;;;5033358;28;20168;-79
2021/08/10 08:43:47;;;;;;;5.80;1.90;;;22.70;1.00;;;;;;5026108;28;20489;-80
2021/08/10 08:46:40;;;;;;;4.87;1.67;;;22.80;1.00;;;;;;5034034;28;20415;-79
2021/08/10 08:49:07;;;;;;;5.00;1.67;;;22.90;1.00;;;;;;5032892;28;20501;-80
2021/08/10 08:51:33;;;;;;;7.60;2.20;;;22.90;1.00;;;;;;5030801;28;20427;-81
2021/08/10 08:54:02;;;;;;;9.40;1.93;;;22.90;1.00;;;;;;5033165;28;20923;-81
2021/08/10 08:56:27;;;;;;;2.70;1.53;;;22.80;1.00;;;;;;5028318;28;20177;-81
2021/08/10 08:58:55;;;;;;;4.33;1.57;;;22.70;1.00;;;;;;5032003;28;20465;-81
2021/08/10 09:01:21;;;;;;;3.87;1.53;;;22.60;1.00;;;;;;5032336;28;20176;-81
2021/08/10 09:03:47;;;;;;;9.20;1.60;;;22.60;1.00;;;;;;5017248;28;20425;-81
2021/08/10 09:06:12;;;;;;;3.93;1.50;;;22.60;1.00;;;;;;5039205;28;20738;-79
2021/08/10 09:08:40;;;;;;;4.90;1.53;;;22.70;1.00;;;;;;5033353;28;20161;-78
2021/08/10 09:11:09;;;;;;;9.83;1.73;;;22.70;1.00;;;;;;5033120;28;20175;-79
2021/08/10 09:13:39;;;;;;;4.63;2.13;;;22.70;1.00;;;;;;5031840;28;20423;-79
2021/08/10 09:16:07;;;;;;;5.33;1.80;;;22.70;1.00;;;;;;5030814;28;20422;-79
2021/08/10 09:18:36;;;;;;;8.80;1.90;;;22.70;1.00;;;;;;5033120;28;20406;-79
2021/08/10 09:21:07;;;;;;;6.00;1.63;;;22.70;1.00;;;;;;5033442;28;20374;-81
2021/08/10 09:23:53;;;;;;;2.30;1.60;;;22.80;1.00;;;;;;5032364;28;20437;-81
2021/08/10 09:26:22;;;;;;;4.40;1.70;;;22.80;1.00;;;;;;5031832;28;20772;-81
2021/08/10 09:28:50;;;;;;;5.80;1.67;;;23.00;1.00;;;;;;5029852;28;20422;-81
2021/08/10 09:31:40;;;;;;;2.57;1.50;;;23.00;1.00;;;;;;5031853;28;20932;-81
2021/08/10 09:34:18;;;;;;;8.70;2.10;;;23.20;1.00;;;;;;5031943;28;20392;-81
2021/08/10 09:36:44;;;;;;;4.67;1.80;;;23.50;1.00;;;;;;5033268;28;20399;-81
2021/08/10 09:39:10;;;;;;;10.37;2.00;;;23.70;1.00;;;;;;5025109;28;20420;-81
2021/08/10 09:41:36;;;;;;;4.20;1.70;;;24.00;1.00;;;;;;5013448;28;20419;-81
2021/08/10 09:44:10;;;;;;;2.70;1.90;;;24.00;1.00;;;;;;5018451;28;20245;-81
2021/08/10 09:46:37;;;;;;;4.43;1.57;;;24.20;1.00;;;;;;5031949;28;20421;-81
2021/08/10 09:49:06;;;;;;;2.50;1.67;;;24.30;1.00;;;;;;5014412;28;20410;-81
2021/08/10 09:51:32;;;;;;;3.93;1.60;;;24.40;1.00;;;;;;5021207;28;20384;-79
2021/08/10 09:54:01;;;;;;;2.20;1.60;;;24.50;1.00;;;;;;5032582;28;20425;-79
2021/08/10 09:56:56;;;;;;;2.27;1.80;;;24.40;1.00;;;;;;5031625;28;20432;-78
2021/08/10 09:59:26;;;;;;;2.70;1.53;;;24.40;1.00;;;;;;5031616;28;20874;-79
2021/08/10 10:01:59;;;;;;;2.83;1.50;;;24.40;1.00;;;;;;5028757;28;20417;-79
2021/08/10 10:04:31;;;;;;;5.43;1.63;;;24.30;1.00;;;;;;5012857;28;20429;-79
2021/08/10 10:07:07;;;;;;;4.20;1.80;;;24.30;1.00;;;;;;5013341;28;20394;-78
2021/08/10 10:09:33;;;;;;;2.13;1.80;;;24.30;1.00;;;;;;5012937;28;20875;-79
2021/08/10 10:12:01;;;;;;;3.47;1.73;;;24.50;1.00;;;;;;5016646;28;20465;-79
2021/08/10 10:14:28;;;;;;;3.20;1.70;;;24.50;1.00;;;;;;5017303;28;20423;-79
2021/08/10 10:16:54;;;;;;;2.67;1.63;;;24.70;1.00;;;;;;5032180;28;20826;-79
2021/08/10 10:19:21;;;;;;;7.00;1.90;;;24.90;1.00;;;;;;5013013;28;20924;-79
2021/08/10 10:21:50;;;;;;;2.23;1.50;;;24.90;1.00;;;;;;5019157;28;20417;-79
2021/08/10 10:24:19;;;;;;;2.27;1.50;;;25.20;1.00;;;;;;5020891;28;20502;-79
2021/08/10 10:26:48;;;;;;;2.67;1.60;;;25.20;1.00;;;;;;5012724;28;20403;-78
2021/08/10 10:29:16;;;;;;;3.07;1.70;;;25.20;1.00;;;;;;5031353;28;20425;-78
2021/08/10 10:31:42;;;;;;;5.43;1.90;;;;;;;;;;5032181;28;20462;-79
2021/08/10 10:34:12;;;;;;;2.83;1.70;;;25.10;1.00;;;;;;5032178;28;20392;-78
2021/08/10 10:36:41;;;;;;;4.50;1.67;;;25.20;1.00;;;;;;5023385;28;20413;-79
2021/08/10 10:39:08;;;;;;;11.27;1.87;;;;;;;;;;5016401;28;20475;-78
2021/08/10 10:41:35;;;;;;;1.60;1.43;;;25.10;1.00;;;;;;5016219;28;20396;-79
2021/08/10 10:44:01;;;;;;;3.30;2.00;;;25.10;1.00;;;;;;5024439;28;20429;-78
2021/08/10 10:46:36;;;;;;;4.80;2.30;;;25.10;1.00;;;;;;5035908;28;20862;-79
2021/08/10 10:49:07;;;;;;;3.60;2.20;;;25.30;1.00;;;;;;5035893;28;20392;-79
2021/08/10 10:51:39;;;;;;;4.70;2.30;;;25.30;1.00;;;;;;5036285;28;20459;-79
2021/08/10 10:54:27;;;;;;;4.60;2.20;;;25.50;1.00;;;;;;5033657;28;20430;-79
2021/08/10 10:57:00;;;;;;;3.10;1.80;;;25.60;1.00;;;;;;5035292;28;20415;-79
2021/08/10 10:59:36;;;;;;;2.07;1.77;;;25.80;1.00;;;;;;5035069;28;20437;-79
2021/08/10 11:02:18;;;;;;;1.97;1.50;;;26.00;1.00;;;;;;5035713;28;20449;-78
2021/08/10 11:05:05;;;;;;;3.70;2.00;;;26.20;1.00;;;;;;5033416;28;20426;-78
2021/08/10 11:07:38;;;;;;;9.07;2.27;;;26.10;1.00;;;;;;5016092;28;20445;-79
2021/08/10 11:10:28;;;;;;;4.17;2.17;;;26.10;1.00;;;;;;5016020;28;20697;-79
2021/08/10 11:12:54;;;;;;;5.43;2.27;;;26.20;1.00;;;;;;5016040;28;20480;-79
2021/08/10 11:15:20;;;;;;;5.60;2.37;;;26.20;1.00;;;;;;5015723;28;20784;-79
2021/08/10 11:18:08;;;;;;;4.73;2.17;;;26.10;1.00;;;;;;5015625;28;20171;-79
2021/08/10 11:20:38;;;;;;;5.33;1.97;;;26.10;1.00;;;;;;5015602;28;20399;-79
2021/08/10 11:23:22;;;;;;;4.13;2.07;;;26.10;1.00;;;;;;5016828;28;20550;-81
2021/08/10 11:25:51;;;;;;;3.00;2.30;;;25.90;1.00;;;;;;5015483;28;20462;-81
2021/08/10 11:28:24;;;;;;;7.23;2.27;;;25.60;1.00;;;;;;5015214;28;20755;-81
2021/08/10 11:30:51;;;;;;;3.67;2.33;;;25.60;1.00;;;;;;5017768;28;20489;-81
2021/08/10 11:33:41;;;;;;;9.57;2.57;;;25.60;1.00;;;;;;5033222;28;20418;-81
2021/08/10 11:36:12;;;;;;;7.20;2.33;;;25.60;1.00;;;;;;5035083;28;20862;-81
2021/08/10 11:38:43;;;;;;;3.60;2.17;;;25.60;1.00;;;;;;5035111;28;20465;-81
2021/08/10 11:41:10;;;;;;;4.63;2.00;;;25.60;1.00;;;;;;5034958;28;20401;-83
2021/08/10 11:43:44;;;;;;;3.57;2.30;;;25.30;1.00;;;;;;5026372;28;20453;-81
2021/08/10 11:46:21;;;;;;;2.10;1.90;;;25.30;1.00;;;;;;5014969;28;20933;-81
2021/08/10 11:49:02;;;;;;;3.47;1.83;;;25.30;1.00;;;;;;5014599;28;20426;-81
2021/08/10 11:51:28;;;;;;;3.93;2.00;;;25.50;1.00;;;;;;5014968;28;20486;-81
2021/08/10 11:53:58;;;;;;;2.60;2.00;;;25.60;1.00;;;;;;5029028;28;20524;-81
2021/08/10 11:56:34;;;;;;;3.83;2.37;;;25.70;1.00;;;;;;5034324;28;20178;-81
2021/08/10 11:59:01;;;;;;;3.43;1.87;;;25.60;1.00;;;;;;5028807;28;20441;-81
2021/08/10 12:01:34;;;;;;;4.97;2.27;;;25.70;1.00;;;;;;5027168;28;20785;-81
2021/08/10 12:04:26;;;;;;;6.43;2.30;;;25.80;1.00;;;;;;5026309;28;20553;-81
2021/08/10 12:06:57;;;;;;;2.20;2.00;;;26.00;1.00;;;;;;5014930;28;20453;-79
2021/08/10 12:09:27;;;;;;;4.93;2.60;;;26.00;1.00;;;;;;5014624;28;20392;-81
2021/08/10 12:11:56;;;;;;;5.10;2.50;;;26.20;1.00;;;;;;5025271;28;20509;-81
2021/08/10 12:14:25;;;;;;;2.50;2.13;;;26.50;1.00;;;;;;5013286;28;20417;-81
2021/08/10 12:17:11;;;;;;;2.70;2.23;;;26.70;1.00;;;;;;5016519;28;20408;-81
2021/08/10 12:19:46;;;;;;;7.63;2.83;;;26.80;1.00;;;;;;5032653;28;20412;-81
2021/08/10 12:22:16;;;;;;;2.20;1.97;;;26.90;1.00;;;;;;5029619;28;20454;-79
2021/08/10 12:24:42;;;;;;;3.20;2.33;;;27.20;1.00;;;;;;5025834;28;20411;-79
2021/08/10 12:27:12;;;;;;;4.83;2.40;;;27.20;1.00;;;;;;5033744;28;20502;-79
2021/08/10 12:29:41;;;;;;;2.80;2.27;;;27.10;1.00;;;;;;5015777;28;20416;-79
2021/08/10 12:32:12;;;;;;;2.97;2.20;;;27.10;1.00;;;;;;5027456;28;20932;-79
2021/08/10 12:34:40;;;;;;;3.80;2.53;;;27.20;1.00;;;;;;5032868;28;20425;-79
2021/08/10 12:37:07;;;;;;;4.93;2.30;;;27.30;1.00;;;;;;5033973;28;20874;-80
2021/08/10 12:39:51;;;;;;;2.77;2.03;;;27.30;1.00;;;;;;5023927;28;20423;-82
2021/08/10 12:42:17;;;;;;;3.27;2.30;;;27.00;1.00;;;;;;5015052;28;20452;-81
2021/08/10 12:44:42;;;;;;;9.73;2.90;;;27.00;1.00;;;;;;5013938;28;20404;-81
2021/08/10 12:47:09;;;;;;;2.90;2.20;;;27.00;1.00;;;;;;5013991;28;20484;-81
2021/08/10 12:49:45;;;;;;;11.00;2.03;;;27.20;1.00;;;;;;5013741;28;20186;-81
2021/08/10 12:52:15;;;;;;;5.63;2.40;;;27.10;1.00;;;;;;5025442;28;20498;-81
2021/08/10 12:54:47;;;;;;;4.40;2.73;;;27.00;1.00;;;;;;5030350;28;20432;-81
2021/08/10 12:57:21;;;;;;;2.60;2.17;;;27.00;1.00;;;;;;5014385;28;20418;-81
2021/08/10 12:59:53;;;;;;;2.60;2.40;;;27.20;1.00;;;;;;5022015;28;20555;-81
2021/08/10 13:02:37;;;;;;;3.77;2.40;;;27.20;1.00;;;;;;5017563;28;20514;-81
2021/08/10 13:05:05;;;;;;;3.90;2.03;;;27.50;1.00;;;;;;5013568;28;20777;-81
2021/08/10 13:07:31;;;;;;;3.33;2.37;;;;;;;;;;5015285;28;20482;-80
2021/08/10 13:10:02;;;;;;;2.90;2.63;;;27.50;1.00;;;;;;5033201;28;20896;-81
2021/08/10 13:12:29;;;;;;;5.60;2.70;;;27.60;1.00;;;;;;5030122;28;20512;-83
2021/08/10 13:15:09;;;;;;;2.17;1.97;;;27.60;1.00;;;;;;5015495;28;20858;-82
2021/08/10 13:17:43;;;;;;;3.47;2.40;;;27.60;1.00;;;;;;5012500;28;20441;-84
2021/08/10 13:20:14;;;;;;;12.30;2.50;;;27.70;1.00;;;;;;5013665;28;20501;-84
2021/08/10 13:22:50;;;;;;;5.60;2.33;;;27.80;1.00;;;;;;5013875;28;20448;-85
2021/08/10 13:25:25;;;;;;;2.60;2.23;;;27.90;1.00;;;;;;5014530;28;20425;-84
2021/08/10 13:28:12;;;;;;;3.30;2.20;;;28.10;1.00;;;;;;5025655;28;20428;-84
2021/08/10 13:30:39;;;;;;;3.33;2.40;;;28.20;1.00;;;;;;5027277;28;20473;-84
2021/08/10 13:33:19;;;;;;;8.80;2.87;;;28.20;1.00;;;;;;5023954;28;20474;-84
2021/08/10 13:35:47;;;;;;;3.20;2.30;;;28.30;1.00;;;;;;5014618;28;20512;-84
2021/08/10 13:38:17;;;;;;;10.20;2.70;;;28.30;1.00;;;;;;5013746;28;20450;-84
2021/08/10 13:40:51;;;;;;;6.03;2.67;;;28.40;1.00;;;;;;5015659;28;20422;-84
2021/08/10 13:43:17;;;;;;;4.23;2.70;;;;;;;;;;5029438;28;20465;-84
2021/08/10 13:45:43;;;;;;;2.97;2.30;;;;;;;;;;5014323;28;20787;-84
2021/08/10 13:48:10;;;;;;;4.27;2.40;;;28.20;1.00;;;;;;5014145;28;20481;-84
2021/08/10 13:50:36;;;;;;;3.47;2.60;;;28.40;1.00;;;;;;5028989;28;20422;-84
2021/08/10 13:53:03;;;;;;;4.20;2.90;;;28.40;1.00;;;;;;5030493;28;20483;-85
2021/08/10 13:55:29;;;;;;;4.53;3.07;;;28.30;1.00;;;;;;5027841;28;20941;-86
2021/08/10 13:57:56;;;;;;;7.60;2.70;;;;;;;;;;5012625;28;20419;-85
2021/08/10 14:00:21;;;;;;;3.20;2.23;;;28.20;1.00;;;;;;5018185;28;20666;-85
2021/08/10 14:02:47;;;;;;;6.00;2.73;;;;;;;;;;5029934;28;20489;-86
2021/08/10 14:05:13;;;;;;;4.97;2.33;;;28.00;1.00;;;;;;5031010;28;20257;-85
2021/08/10 14:07:40;;;;;;;4.40;2.90;;;;;;;;;;5031745;28;20463;-86
2021/08/10 14:10:08;;;;;;;3.27;2.60;;;27.80;1.00;;;;;;5030410;28;20175;-86
2021/08/10 14:12:34;;;;;;;6.30;2.80;;;;;;;;;;5032555;28;20434;-86
2021/08/10 14:15:00;;;;;;;5.60;2.70;;;;;;;;;;5024818;28;20421;-85
2021/08/10 14:17:26;;;;;;;4.37;2.60;;;27.50;1.00;;;;;;5034246;28;20436;-85
2021/08/10 14:19:52;;;;;;;3.87;2.30;;;;;;;;;;5037039;28;20410;-85
2021/08/10 14:22:18;;;;;;;3.77;2.70;;;;;;;;;;5034564;28;20459;-85
2021/08/10 14:24:44;;;;;;;4.13;2.80;;;;;;;;;;5033042;28;20415;-84
2021/08/10 14:27:10;;;;;;;4.33;2.90;;;;;;;;;;5016795;28;20407;-84
2021/08/10 14:29:42;;;;;;;6.60;2.77;;;27.80;1.00;;;;;;5016214;28;20422;-84
2021/08/10 14:32:08;;;;;;;3.93;2.27;;;;;;;;;;5016637;28;20431;-84
2021/08/10 14:34:33;;;;;;;6.87;2.90;;;27.80;1.00;;;;;;5015111;28;20465;-84
2021/08/10 14:36:59;;;;;;;4.27;2.73;;;27.70;1.00;;;;;;5017102;28;20408;-84
2021/08/10 14:39:25;;;;;;;4.17;2.80;;;27.70;1.00;;;;;;5021148;28;20185;-84
2021/08/10 14:41:51;;;;;;;4.20;2.60;;;;;;;;;;5022721;28;20188;-85
2021/08/10 14:44:17;;;;;;;3.30;2.63;;;;;;;;;;5029113;28;20617;-84
2021/08/10 14:46:43;;;;;;;7.40;2.70;;;27.50;1.00;;;;;;5030958;28;20419;-85
2021/08/10 14:49:10;;;;;;;5.80;2.90;;;;;;;;;;5016478;28;20408;-84
2021/08/10 14:51:36;;;;;;;5.93;2.60;;;;;;;;;;5017447;28;20422;-84
2021/08/10 14:54:02;;;;;;;3.07;2.50;;;;;;;;;;5031080;28;20421;-86
2021/08/10 14:56:28;;;;;;;2.90;2.50;;;;;;;;;;5034780;28;20429;-85
2021/08/10 14:58:54;;;;;;;4.20;2.33;;;;;;;;;;5021703;28;20509;-85
2021/08/10 15:01:20;;;;;;;3.00;2.47;;;28.30;1.00;;;;;;5024315;28;20422;-85
2021/08/10 15:03:46;;;;;;;5.03;2.80;;;;;;;;;;5035576;28;20453;-84
2021/08/10 15:06:13;;;;;;;15.20;2.93;;;;;;;;;;5032880;28;20209;-84
2021/08/10 15:08:39;;;;;;;3.73;2.40;;;;;;;;;;5036359;28;20389;-84
2021/08/10 15:11:05;;;;;;;3.30;2.60;;;;;;;;;;5032931;28;20414;-85
2021/08/10 15:13:31;;;;;;;5.73;3.00;;;;;;;;;;5034261;28;20426;-85
2021/08/10 15:15:57;;;;;;;3.33;2.80;;;;;;;;;;5025647;28;20419;-81
2021/08/10 15:18:24;;;;;;;4.63;2.97;;;;;;;;;;5025265;28;20423;-78
2021/08/10 15:20:51;;;;;;;7.17;2.93;;;27.70;1.00;;;;;;5022533;28;20513;-79
2021/08/10 15:23:35;;;;;;;6.50;2.77;;;27.60;1.00;;;;;;5030859;28;20855;-79
2021/08/10 15:26:23;;;;;;;4.40;2.67;;;27.50;1.00;;;;;;5035667;28;20422;-81